Time,TemperatureF,DewpointF,PressureIn,WindDirection,WindDirectionDegrees,WindSpeedMPH,WindSpeedGustMPH,Humidity,HourlyPrecipIn,Conditions,Clouds,dailyrainin,SoftwareType,DateUTC
2013-02-04 00:07:00,33.7,30.0,30.12,SW,224,0.0,2.0,87,0.00,,,0.00,weatherlink.com 1.10,2013-02-04 08:07:00,
2013-02-04 00:22:00,33.9,30.0,30.12,NNW,327,3.0,3.0,86,0.00,,,0.00,weatherlink.com 1.10,2013-02-04 08:22:00,
2013-02-04 00:37:00,33.1,30.0,30.12,NNW,340,2.0,4.0,87,0.00,,,0.00,weatherlink.com 1.10,2013-02-04 08:37:00,
2013-02-04 00:52:00,32.6,30.0,30.13,NE,43,0.0,3.0,89,0.00,,,0.00,weatherlink.com 1.10,2013-02-04 08:52:00,
2013-02-04 01:07:00,33.1,30.0,30.12,ESE,103,0.0,3.0,89,0.00,,,0.00,weatherlink.com 1.10,2013-02-04 09:07:00,
2013-02-04 01:22:00,34.4,30.0,30.12,SW,227,4.0,7.0,84,0.00,,,0.00,weatherlink.com 1.10,2013-02-04 09:22:00,
2013-02-04 01:37:00,34.1,30.0,30.12,WSW,252,0.0,9.0,85,0.00,,,0.00,weatherlink.com 1.10,2013-02-04 09:37:00,
2013-02-04 01:52:00,34.6,30.0,30.12,SSW,201,3.0,10.0,83,0.00,,,0.00,weatherlink.com 1.10,2013-02-04 09:52:00,
2013-02-04 02:08:00,34.2,30.0,30.12,WSW,240,0.0,7.0,83,0.00,,,0.00,weatherlink.com 1.10,2013-02-04 10:08:00,
2013-02-04 02:23:00,33.7,30.0,30.12,NNE,29,1.0,4.0,85,0.00,,,0.00,weatherlink.com 1.10,2013-02-04 10:23:00,
2013-02-04 02:38:00,34.6,30.0,30.11,South,174,6.0,12.0,83,0.00,,,0.00,weatherlink.com 1.10,2013-02-04 10:38:00,
2013-02-04 02:53:00,34.6,30.0,30.11,West,262,1.0,12.0,83,0.00,,,0.00,weatherlink.com 1.10,2013-02-04 10:53:00,
2013-02-04 03:08:00,33.9,30.0,30.10,WNW,288,1.0,5.0,85,0.00,,,0.00,weatherlink.com 1.10,2013-02-04 11:08:00,
2013-02-04 03:23:00,33.4,30.0,30.11,ENE,71,0.0,2.0,86,0.00,,,0.00,weatherlink.com 1.10,2013-02-04 11:23:00,
2013-02-04 03:38:00,33.2,30.0,30.12,North,5,0.0,2.0,87,0.00,,,0.00,weatherlink.com 1.10,2013-02-04 11:38:00,
2013-02-04 03:53:00,33.5,30.0,30.12,SW,228,3.0,12.0,87,0.00,,,0.00,weatherlink.com 1.10,2013-02-04 11:53:00,
2013-02-04 04:08:00,33.8,30.0,30.12,SW,234,6.0,17.0,85,0.00,,,0.00,weatherlink.com 1.10,2013-02-04 12:08:00,
2013-02-04 04:23:00,33.5,30.0,30.12,SW,231,6.0,8.0,86,0.00,,,0.00,weatherlink.com 1.10,2013-02-04 12:23:00,
2013-02-04 04:38:00,34.2,30.0,30.11,SSW,210,8.0,19.0,84,0.00,,,0.00,weatherlink.com 1.10,2013-02-04 12:38:00,
2013-02-04 04:53:00,34.1,30.0,30.11,SSW,210,6.0,8.0,84,0.00,,,0.00,weatherlink.com 1.10,2013-02-04 12:53:00,
2013-02-04 05:08:00,33.5,30.0,30.11,SSW,205,1.0,5.0,85,0.00,,,0.00,weatherlink.com 1.10,2013-02-04 13:08:00,
2013-02-04 05:23:00,33.9,30.0,30.10,SW,217,3.0,12.0,85,0.00,,,0.00,weatherlink.com 1.10,2013-02-04 13:23:00,
2013-02-04 05:38:00,33.9,30.0,30.11,South,188,9.0,17.0,85,0.00,,,0.00,weatherlink.com 1.10,2013-02-04 13:38:00,
2013-02-04 05:53:00,34.3,30.0,30.11,SSW,208,7.0,15.0,84,0.00,,,0.00,weatherlink.com 1.10,2013-02-04 13:53:00,
2013-02-04 06:08:00,34.2,30.0,30.12,WSW,238,8.0,12.0,85,0.00,,,0.00,weatherlink.com 1.10,2013-02-04 14:08:00,
2013-02-04 06:23:00,33.9,30.0,30.11,SSW,207,5.0,16.0,85,0.00,,,0.00,weatherlink.com 1.10,2013-02-04 14:23:00,
2013-02-04 06:38:00,33.8,30.0,30.11,SW,218,3.0,11.0,85,0.00,,,0.00,weatherlink.com 1.10,2013-02-04 14:38:00,
2013-02-04 06:53:00,33.3,30.0,30.10,SSW,201,7.0,8.0,87,0.00,,,0.00,weatherlink.com 1.10,2013-02-04 14:53:00,
2013-02-04 07:08:00,33.6,30.0,30.11,SSE,163,5.0,9.0,85,0.00,,,0.00,weatherlink.com 1.10,2013-02-04 15:08:00,
2013-02-04 07:23:00,33.4,30.0,30.11,WSW,248,1.0,6.0,86,0.00,,,0.00,weatherlink.com 1.10,2013-02-04 15:23:00,
2013-02-04 07:38:00,34.1,30.0,30.12,NNW,334,0.0,7.0,84,0.00,,,0.00,weatherlink.com 1.10,2013-02-04 15:38:00,
2013-02-04 07:53:00,33.7,30.0,30.12,SW,222,2.0,6.0,85,0.00,,,0.00,weatherlink.com 1.10,2013-02-04 15:53:00,
2013-02-04 08:08:00,33.2,30.0,30.12,SW,222,2.0,3.0,86,0.00,,,0.00,weatherlink.com 1.10,2013-02-04 16:08:00,
2013-02-04 08:23:00,33.7,30.0,30.12,West,276,1.0,2.0,85,0.00,,,0.00,weatherlink.com 1.10,2013-02-04 16:23:00,
2013-02-04 08:38:00,33.3,30.0,30.13,WSW,239,1.0,2.0,86,0.00,,,0.00,weatherlink.com 1.10,2013-02-04 16:38:00,
2013-02-04 08:53:00,34.0,30.0,30.12,SSW,207,4.0,7.0,85,0.00,,,0.00,weatherlink.com 1.10,2013-02-04 16:53:00,
2013-02-04 09:08:00,35.6,30.0,30.11,South,188,7.0,13.0,81,0.00,,,0.00,weatherlink.com 1.10,2013-02-04 17:08:00,
2013-02-04 09:23:00,36.3,31.0,30.12,West,260,0.0,1.0,81,0.00,,,0.00,weatherlink.com 1.10,2013-02-04 17:23:00,
2013-02-04 09:38:00,37.1,32.0,30.13,SW,214,4.0,6.0,81,0.00,,,0.00,weatherlink.com 1.10,2013-02-04 17:38:00,
2013-02-04 09:53:00,37.9,32.0,30.13,SW,219,4.0,9.0,78,0.00,,,0.00,weatherlink.com 1.10,2013-02-04 17:53:00,
2013-02-04 10:08:00,38.0,31.0,30.14,SW,215,5.0,11.0,76,0.00,,,0.00,weatherlink.com 1.10,2013-02-04 18:08:00,
2013-02-04 10:23:00,38.0,32.0,30.13,SW,219,3.0,10.0,78,0.00,,,0.00,weatherlink.com 1.10,2013-02-04 18:23:00,
2013-02-04 10:38:00,39.1,32.0,30.13,South,170,10.0,14.0,75,0.00,,,0.00,weatherlink.com 1.10,2013-02-04 18:38:00,
2013-02-04 10:53:00,39.1,31.0,30.14,SSW,194,9.0,17.0,73,0.00,,,0.00,weatherlink.com 1.10,2013-02-04 18:53:00,
2013-02-04 11:08:00,40.4,32.0,30.13,SSW,197,10.0,14.0,73,0.00,,,0.00,weatherlink.com 1.10,2013-02-04 19:08:00,
2013-02-04 11:23:00,41.4,32.0,30.12,South,177,7.0,12.0,68,0.00,,,0.00,weatherlink.com 1.10,2013-02-04 19:23:00,
2013-02-04 11:38:00,42.5,32.0,30.11,South,172,8.0,12.0,66,0.00,,,0.00,weatherlink.com 1.10,2013-02-04 19:38:00,
2013-02-04 11:54:00,42.0,32.0,30.10,WSW,243,2.0,11.0,67,0.00,,,0.00,weatherlink.com 1.10,2013-02-04 19:54:00,
2013-02-04 12:09:00,42.5,32.0,30.10,SSW,210,5.0,12.0,66,0.00,,,0.00,weatherlink.com 1.10,2013-02-04 20:09:00,
2013-02-04 12:24:00,42.7,32.0,30.10,SW,217,7.0,9.0,66,0.00,,,0.00,weatherlink.com 1.10,2013-02-04 20:24:00,
2013-02-04 12:39:00,42.2,31.0,30.08,SSW,195,10.0,20.0,66,0.00,,,0.00,weatherlink.com 1.10,2013-02-04 20:39:00,
2013-02-04 12:54:00,40.6,31.0,30.08,SSW,201,12.0,20.0,69,0.00,,,0.00,weatherlink.com 1.10,2013-02-04 20:54:00,
2013-02-04 13:09:00,41.0,32.0,30.07,SSW,194,6.0,17.0,69,0.00,,,0.00,weatherlink.com 1.10,2013-02-04 21:09:00,
2013-02-04 13:24:00,42.1,32.0,30.07,SSW,201,8.0,14.0,68,0.00,,,0.00,weatherlink.com 1.10,2013-02-04 21:24:00,
2013-02-04 13:39:00,41.1,32.0,30.07,SSE,161,9.0,16.0,71,0.00,,,0.00,weatherlink.com 1.10,2013-02-04 21:39:00,
2013-02-04 13:54:00,41.0,32.0,30.07,SSW,192,6.0,14.0,71,0.00,,,0.00,weatherlink.com 1.10,2013-02-04 21:54:00,
2013-02-04 14:09:00,41.5,33.0,30.08,WSW,238,5.0,8.0,71,0.00,,,0.00,weatherlink.com 1.10,2013-02-04 22:09:00,
2013-02-04 14:24:00,41.3,33.0,30.07,WSW,252,8.0,13.0,72,0.00,,,0.00,weatherlink.com 1.10,2013-02-04 22:24:00,
2013-02-04 14:39:00,41.5,34.0,30.08,SW,224,4.0,11.0,74,0.00,,,0.00,weatherlink.com 1.10,2013-02-04 22:39:00,
2013-02-04 14:54:00,41.5,33.0,30.08,West,269,1.0,5.0,73,0.00,,,0.00,weatherlink.com 1.10,2013-02-04 22:54:00,
2013-02-04 15:09:00,40.6,33.0,30.07,WSW,240,5.0,11.0,74,0.00,,,0.00,weatherlink.com 1.10,2013-02-04 23:09:00,
2013-02-04 15:24:00,40.2,33.0,30.08,SW,233,4.0,8.0,75,0.00,,,0.00,weatherlink.com 1.10,2013-02-04 23:24:00,
2013-02-04 15:39:00,39.5,33.0,30.07,WSW,257,0.0,6.0,76,0.00,,,0.00,weatherlink.com 1.10,2013-02-04 23:39:00,
2013-02-04 15:54:00,39.1,32.0,30.06,SSW,211,2.0,8.0,77,0.00,,,0.00,weatherlink.com 1.10,2013-02-04 23:54:00,
2013-02-04 16:09:00,39.1,32.0,30.06,SW,215,2.0,5.0,77,0.00,,,0.00,weatherlink.com 1.10,2013-02-05 00:09:00,
2013-02-04 16:24:00,38.7,32.0,30.06,SW,235,2.0,7.0,78,0.00,,,0.00,weatherlink.com 1.10,2013-02-05 00:24:00,
2013-02-04 16:39:00,38.3,32.0,30.06,SW,222,0.0,3.0,79,0.00,,,0.00,weatherlink.com 1.10,2013-02-05 00:39:00,
2013-02-04 16:54:00,37.6,32.0,30.05,SE,134,1.0,3.0,80,0.00,,,0.00,weatherlink.com 1.10,2013-02-05 00:54:00,
2013-02-04 17:09:00,38.0,32.0,30.04,SSE,153,1.0,3.0,79,0.00,,,0.00,weatherlink.com 1.10,2013-02-05 01:09:00,
2013-02-04 17:24:00,38.7,32.0,30.04,South,174,3.0,6.0,77,0.00,,,0.00,weatherlink.com 1.10,2013-02-05 01:24:00,
2013-02-04 17:39:00,38.9,32.0,30.04,SW,236,1.0,5.0,77,0.00,,,0.00,weatherlink.com 1.10,2013-02-05 01:39:00,
2013-02-04 17:54:00,38.0,32.0,30.03,SSW,208,3.0,4.0,78,0.00,,,0.00,weatherlink.com 1.10,2013-02-05 01:54:00,
2013-02-04 18:09:00,38.6,32.0,30.03,South,186,2.0,7.0,77,0.00,,,0.00,weatherlink.com 1.10,2013-02-05 02:09:00,
2013-02-04 18:24:00,38.6,32.0,30.03,SSW,210,3.0,8.0,77,0.00,,,0.00,weatherlink.com 1.10,2013-02-05 02:24:00,
2013-02-04 18:39:00,38.5,32.0,30.03,South,172,2.0,5.0,77,0.00,,,0.00,weatherlink.com 1.10,2013-02-05 02:39:00,
2013-02-04 18:54:00,38.4,32.0,30.03,SSW,192,0.0,4.0,78,0.00,,,0.00,weatherlink.com 1.10,2013-02-05 02:54:00,
2013-02-04 19:09:00,38.6,31.0,30.03,WSW,245,0.0,3.0,75,0.00,,,0.00,weatherlink.com 1.10,2013-02-05 03:09:00,
2013-02-04 19:24:00,38.2,32.0,30.03,SW,229,0.0,0.0,77,0.00,,,0.00,weatherlink.com 1.10,2013-02-05 03:24:00,
2013-02-04 19:39:00,38.3,32.0,30.02,NNE,22,0.0,2.0,77,0.00,,,0.00,weatherlink.com 1.10,2013-02-05 03:39:00,
2013-02-04 19:54:00,37.2,32.0,30.03,NNE,22,0.0,1.0,80,0.00,,,0.00,weatherlink.com 1.10,2013-02-05 03:54:00,
2013-02-04 20:09:00,36.5,31.0,30.03,NNE,22,0.0,1.0,81,0.00,,,0.00,weatherlink.com 1.10,2013-02-05 04:09:00,
2013-02-04 20:24:00,36.6,32.0,30.03,NE,40,0.0,2.0,82,0.00,,,0.00,weatherlink.com 1.10,2013-02-05 04:24:00,
2013-02-04 20:39:00,36.5,32.0,30.03,North,356,0.0,2.0,83,0.00,,,0.00,weatherlink.com 1.10,2013-02-05 04:39:00,
2013-02-04 20:54:00,36.9,32.0,30.02,North,357,0.0,2.0,82,0.00,,,0.00,weatherlink.com 1.10,2013-02-05 04:54:00,
2013-02-04 21:09:00,36.8,32.0,30.02,North,1,0.0,2.0,82,0.00,,,0.00,weatherlink.com 1.10,2013-02-05 05:09:00,
2013-02-04 21:24:00,37.1,32.0,30.02,NE,37,0.0,2.0,82,0.00,,,0.00,weatherlink.com 1.10,2013-02-05 05:24:00,
2013-02-04 21:39:00,37.2,32.0,30.01,NE,37,0.0,1.0,81,0.00,,,0.00,weatherlink.com 1.10,2013-02-05 05:39:00,
2013-02-04 21:54:00,37.4,32.0,30.00,NE,37,0.0,1.0,81,0.00,,,0.00,weatherlink.com 1.10,2013-02-05 05:54:00,
2013-02-04 22:09:00,37.3,32.0,30.00,NE,37,1.0,1.0,81,0.00,,,0.00,weatherlink.com 1.10,2013-02-05 06:09:00,
2013-02-04 22:24:00,37.2,32.0,30.00,North,354,1.0,1.0,81,0.00,,,0.00,weatherlink.com 1.10,2013-02-05 06:24:00,
2013-02-04 22:39:00,37.3,32.0,29.99,NNE,32,1.0,3.0,81,0.00,,,0.00,weatherlink.com 1.10,2013-02-05 06:39:00,
2013-02-04 22:54:00,37.9,32.0,29.98,NNE,30,2.0,2.0,79,0.00,,,0.00,weatherlink.com 1.10,2013-02-05 06:54:00,
2013-02-04 23:09:00,37.9,32.0,29.98,NNE,18,0.0,2.0,79,0.00,,,0.00,weatherlink.com 1.10,2013-02-05 07:09:00,
2013-02-04 23:24:00,38.1,32.0,29.97,NNE,13,0.0,3.0,78,0.00,,,0.00,weatherlink.com 1.10,2013-02-05 07:24:00,
2013-02-04 23:39:00,38.0,31.0,29.97,NW,315,1.0,2.0,77,0.00,,,0.00,weatherlink.com 1.10,2013-02-05 07:39:00,
2013-02-04 23:54:00,35.2,30.0,29.97,SE,146,3.0,3.0,81,0.00,,,0.00,weatherlink.com 1.10,2013-02-05 07:54:00,